createdAt,value
2022-11-12T00:01:19.541Z,100.00
2022-11-12T00:04:05.689Z,100.00
2022-11-12T00:06:51.674Z,100.00
2022-11-12T00:09:37.494Z,100.00
2022-11-12T00:12:23.545Z,100.00
2022-11-12T00:15:10.792Z,100.00
2022-11-12T00:17:56.621Z,100.00
2022-11-12T00:20:42.859Z,100.00
2022-11-12T00:23:28.443Z,100.00
2022-11-12T00:26:14.236Z,100.00
2022-11-12T00:28:59.999Z,100.00
2022-11-12T00:31:45.528Z,100.00
2022-11-12T00:34:31.926Z,100.00
2022-11-12T00:37:18.794Z,100.00
2022-11-12T00:40:05.123Z,100.00
2022-11-12T00:42:53.044Z,100.00
2022-11-12T00:45:38.844Z,100.00
2022-11-12T00:48:24.746Z,100.00
2022-11-12T00:51:11.056Z,100.00
2022-11-12T00:53:57.085Z,100.00
2022-11-12T00:56:43.445Z,100.00
2022-11-12T00:59:29.493Z,100.00
2022-11-12T01:02:15.417Z,100.00
2022-11-12T01:05:01.171Z,100.00
2022-11-12T01:07:53.149Z,100.00
2022-11-12T01:10:41.543Z,100.00
2022-11-12T01:13:27.448Z,100.00
2022-11-12T01:16:20.020Z,100.00
2022-11-12T01:19:09.241Z,100.00
2022-11-12T01:21:55.246Z,100.00
2022-11-12T01:24:41.358Z,100.00
2022-11-12T01:27:27.248Z,100.00
2022-11-12T01:30:13.557Z,100.00
2022-11-12T01:32:59.335Z,100.00
2022-11-12T01:35:44.866Z,100.00
2022-11-12T01:38:35.836Z,100.00
2022-11-12T01:41:27.238Z,100.00
2022-11-12T01:44:26.933Z,100.00
2022-11-12T01:47:20.440Z,100.00
2022-11-12T01:50:23.265Z,100.00
2022-11-12T01:53:12.435Z,100.00
2022-11-12T01:55:59.987Z,100.00
2022-11-12T01:58:49.295Z,100.00
2022-11-12T02:01:36.572Z,100.00
2022-11-12T02:04:22.842Z,100.00
2022-11-12T02:07:10.020Z,100.00
2022-11-12T02:09:55.715Z,100.00
2022-11-12T02:13:01.584Z,100.00
2022-11-12T02:15:47.729Z,100.00
2022-11-12T02:18:33.714Z,100.00
2022-11-12T02:21:22.363Z,100.00
2022-11-12T02:24:14.404Z,100.00
2022-11-12T02:27:01.005Z,100.00
2022-11-12T02:29:46.796Z,100.00
2022-11-12T02:32:33.070Z,100.00
2022-11-12T02:35:18.996Z,100.00
2022-11-12T02:38:07.015Z,100.00
2022-11-12T02:40:53.170Z,100.00
2022-11-12T02:43:40.740Z,100.00
2022-11-12T02:46:26.566Z,100.00
2022-11-12T02:49:12.525Z,100.00
2022-11-12T02:51:58.005Z,100.00
2022-11-12T02:54:43.916Z,100.00
2022-11-12T02:57:30.424Z,100.00
2022-11-12T03:00:16.690Z,100.00
2022-11-12T03:03:02.721Z,100.00
2022-11-12T03:06:00.457Z,100.00
2022-11-12T03:08:46.604Z,100.00
2022-11-12T03:11:32.434Z,100.00
2022-11-12T03:14:18.600Z,100.00
2022-11-12T03:17:04.652Z,100.00
2022-11-12T03:19:50.309Z,100.00
2022-11-12T03:22:37.101Z,100.00
2022-11-12T03:25:22.966Z,100.00
2022-11-12T03:28:12.976Z,100.00
2022-11-12T03:31:00.658Z,100.00
2022-11-12T03:33:46.620Z,100.00
2022-11-12T03:36:32.821Z,100.00
2022-11-12T03:39:18.706Z,100.00
2022-11-12T03:42:04.844Z,100.00
2022-11-12T03:44:50.969Z,100.00
2022-11-12T03:47:36.654Z,100.00
2022-11-12T03:50:27.564Z,100.00
2022-11-12T03:53:13.960Z,100.00
2022-11-12T03:55:59.911Z,100.00
2022-11-12T03:58:45.647Z,100.00
2022-11-12T04:01:32.932Z,100.00
2022-11-12T04:04:18.935Z,100.00
2022-11-12T04:07:23.272Z,100.00
2022-11-12T04:10:09.555Z,100.00
2022-11-12T04:13:14.373Z,100.00
2022-11-12T04:16:19.657Z,100.00
2022-11-12T04:19:26.148Z,100.00
2022-11-12T04:22:12.453Z,100.00
2022-11-12T04:25:17.474Z,100.00
2022-11-12T04:28:03.627Z,100.00
2022-11-12T04:30:49.225Z,100.00
2022-11-12T04:33:35.421Z,100.00
2022-11-12T04:36:20.900Z,100.00
2022-11-12T04:39:06.469Z,100.00
2022-11-12T04:42:10.866Z,100.00
2022-11-12T04:44:57.351Z,100.00
2022-11-12T04:47:46.764Z,100.00
2022-11-12T04:50:32.780Z,100.00
2022-11-12T04:53:18.932Z,100.00
2022-11-12T04:56:04.934Z,100.00
2022-11-12T04:58:50.776Z,100.00
2022-11-12T05:01:36.425Z,100.00
2022-11-12T05:04:22.549Z,100.00
2022-11-12T05:07:08.676Z,100.00
2022-11-12T05:09:54.504Z,100.00
2022-11-12T05:12:40.439Z,100.00
2022-11-12T05:15:26.183Z,100.00
2022-11-12T05:18:11.890Z,100.00
2022-11-12T05:20:57.851Z,100.00
2022-11-12T05:23:43.397Z,100.00
2022-11-12T05:26:30.508Z,100.00
2022-11-12T05:29:16.293Z,100.00
2022-11-12T05:32:02.503Z,100.00
2022-11-12T05:34:47.937Z,100.00
2022-11-12T05:37:33.705Z,100.00
2022-11-12T05:40:19.293Z,100.00
2022-11-12T05:43:05.053Z,100.00
2022-11-12T05:45:50.435Z,100.00
2022-11-12T05:48:36.113Z,100.00
2022-11-12T05:51:22.681Z,100.00
2022-11-12T05:54:08.735Z,100.00
2022-11-12T05:56:54.555Z,100.00
2022-11-12T05:59:40.672Z,100.00
2022-11-12T06:02:26.232Z,100.00
2022-11-12T06:05:12.588Z,100.00
2022-11-12T06:07:58.800Z,100.00
2022-11-12T06:10:49.902Z,100.00
2022-11-12T06:13:36.106Z,100.00
2022-11-12T06:16:22.029Z,100.00
2022-11-12T06:19:07.759Z,100.00
2022-11-12T06:21:54.013Z,100.00
2022-11-12T06:24:39.817Z,100.00
2022-11-12T06:27:26.166Z,100.00
2022-11-12T06:30:12.507Z,100.00
2022-11-12T06:32:58.783Z,100.00
2022-11-12T06:35:44.559Z,100.00
2022-11-12T06:38:36.757Z,100.00
2022-11-12T06:41:22.703Z,100.00
2022-11-12T06:44:08.453Z,100.00
2022-11-12T06:46:54.056Z,100.00
2022-11-12T06:49:39.858Z,100.00
2022-11-12T06:52:25.276Z,100.00
2022-11-12T06:55:11.073Z,100.00
2022-11-12T06:57:56.886Z,100.00
2022-11-12T07:00:42.582Z,100.00
2022-11-12T07:03:28.230Z,100.00
2022-11-12T07:06:19.355Z,100.00
2022-11-12T07:09:06.027Z,100.00
2022-11-12T07:11:53.120Z,100.00
2022-11-12T07:14:38.825Z,100.00
2022-11-12T07:17:24.460Z,100.00
2022-11-12T07:20:11.230Z,100.00
2022-11-12T07:23:01.497Z,100.00
2022-11-12T07:25:47.321Z,100.00
2022-11-12T07:28:33.791Z,100.00
2022-11-12T07:31:20.979Z,100.00
2022-11-12T07:34:07.048Z,100.00
2022-11-12T07:36:53.249Z,100.00
2022-11-12T07:39:39.338Z,98.68
2022-11-12T07:42:25.954Z,100.00
2022-11-12T07:45:11.670Z,100.00
2022-11-12T07:47:59.591Z,100.00
2022-11-12T07:50:45.656Z,78.29
2022-11-12T07:53:32.175Z,78.28
2022-11-12T07:56:21.926Z,63.22
2022-11-12T07:59:07.980Z,59.78
2022-11-12T08:01:53.556Z,54.47
2022-11-12T08:04:39.655Z,52.63
2022-11-12T08:07:25.833Z,50.22
2022-11-12T08:10:11.907Z,45.32
2022-11-12T08:12:58.185Z,43.90
2022-11-12T08:15:49.435Z,42.52
2022-11-12T08:18:38.078Z,44.13
2022-11-12T08:21:24.421Z,40.60
2022-11-12T08:24:10.729Z,35.27
2022-11-12T08:26:56.462Z,33.94
2022-11-12T08:29:42.078Z,32.88
2022-11-12T08:32:28.302Z,32.59
2022-11-12T08:35:14.547Z,31.69
2022-11-12T08:38:03.382Z,31.48
2022-11-12T08:40:49.178Z,31.87
2022-11-12T08:43:35.427Z,32.53
2022-11-12T08:46:20.929Z,35.90
2022-11-12T08:49:06.519Z,36.36
2022-11-12T08:51:55.600Z,35.58
2022-11-12T08:54:41.387Z,33.37
2022-11-12T08:57:27.462Z,34.80
2022-11-12T09:00:14.170Z,34.05
2022-11-12T09:03:05.433Z,34.32
2022-11-12T09:05:53.316Z,35.56
2022-11-12T09:08:39.996Z,34.51
2022-11-12T09:11:26.247Z,31.45
2022-11-12T09:14:11.817Z,30.76
2022-11-12T09:16:57.736Z,30.56
2022-11-12T09:19:43.314Z,29.67
2022-11-12T09:22:29.289Z,27.69
2022-11-12T09:25:15.201Z,28.56
2022-11-12T09:28:13.704Z,28.49
2022-11-12T09:30:59.998Z,28.11
2022-11-12T09:33:45.960Z,29.00
2022-11-12T09:36:35.859Z,30.01
2022-11-12T09:39:24.239Z,32.16
2022-11-12T09:42:16.539Z,31.96
2022-11-12T09:45:26.771Z,32.60
2022-11-12T09:48:15.697Z,33.67
2022-11-12T09:51:10.436Z,32.68
2022-11-12T09:54:31.495Z,33.51
2022-11-12T09:57:17.179Z,33.75
2022-11-12T10:00:03.946Z,32.15
2022-11-12T10:03:34.576Z,31.31
2022-11-12T10:06:29.872Z,32.07
2022-11-12T10:09:31.168Z,33.89
2022-11-12T10:13:00.707Z,34.18
2022-11-12T10:16:41.605Z,35.74
2022-11-12T10:19:49.612Z,34.82
2022-11-12T10:22:59.201Z,35.06
2022-11-12T10:25:48.732Z,35.26
2022-11-12T10:28:40.667Z,36.59
2022-11-12T10:31:26.767Z,35.74
2022-11-12T10:34:21.568Z,35.98
2022-11-12T10:37:38.676Z,37.75
2022-11-12T10:40:37.995Z,37.56
2022-11-12T10:43:25.580Z,34.56
2022-11-12T10:46:21.091Z,35.01
2022-11-12T10:49:16.526Z,37.66
2022-11-12T10:52:02.297Z,38.71
2022-11-12T10:54:53.911Z,39.08
2022-11-12T10:57:40.804Z,38.15
2022-11-12T11:00:26.923Z,37.19
2022-11-12T11:03:40.413Z,37.26
2022-11-12T11:06:27.924Z,38.74
2022-11-12T11:09:13.820Z,37.15
2022-11-12T11:12:00.617Z,36.83
2022-11-12T11:14:46.514Z,36.83
2022-11-12T11:17:32.634Z,40.45
2022-11-12T11:20:47.611Z,43.42
2022-11-12T11:23:58.023Z,41.96
2022-11-12T11:27:36.488Z,49.42
2022-11-12T11:30:23.602Z,49.65
2022-11-12T11:33:56.796Z,49.71
2022-11-12T11:37:18.406Z,44.86
2022-11-12T11:40:45.821Z,42.87
2022-11-12T11:43:47.265Z,44.12
2022-11-12T11:46:41.831Z,46.90
2022-11-12T11:49:58.239Z,42.18
2022-11-12T11:53:10.306Z,42.84
2022-11-12T11:56:28.610Z,47.48
2022-11-12T11:59:45.080Z,45.33
2022-11-12T12:03:17.019Z,44.06
2022-11-12T12:06:45.201Z,41.53
2022-11-12T12:10:11.637Z,43.30
2022-11-12T12:13:48.594Z,40.66
2022-11-12T12:16:53.907Z,39.69
2022-11-12T12:20:06.403Z,40.22
2022-11-12T12:23:00.235Z,38.43
2022-11-12T12:25:49.297Z,39.07
2022-11-12T12:28:53.485Z,39.84
2022-11-12T12:31:55.624Z,42.94
2022-11-12T12:34:47.885Z,44.51
2022-11-12T12:38:14.576Z,44.06
2022-11-12T12:41:16.759Z,45.75
2022-11-12T12:44:09.542Z,46.10
2022-11-12T12:47:00.998Z,50.19
2022-11-12T12:49:49.518Z,52.00
2022-11-12T12:53:05.510Z,53.12
2022-11-12T12:56:24.420Z,57.39
2022-11-12T12:59:22.237Z,60.27
2022-11-12T13:02:24.522Z,62.78
2022-11-12T13:05:25.795Z,63.57
2022-11-12T13:08:19.184Z,64.79
2022-11-12T13:11:05.431Z,67.97
2022-11-12T13:13:51.551Z,68.32
2022-11-12T13:16:52.633Z,66.81
2022-11-12T13:19:53.739Z,69.71
2022-11-12T13:22:42.858Z,69.43
2022-11-12T13:25:31.882Z,69.79
2022-11-12T13:28:17.883Z,71.96
2022-11-12T13:31:04.941Z,71.79
2022-11-12T13:33:50.858Z,68.86
2022-11-12T13:36:36.752Z,69.59
2022-11-12T13:39:24.168Z,66.97
2022-11-12T13:42:34.790Z,72.20
2022-11-12T13:45:27.253Z,70.97
2022-11-12T13:48:23.302Z,72.49
2022-11-12T13:51:39.842Z,75.63
2022-11-12T13:54:34.523Z,72.16
2022-11-12T13:57:20.719Z,73.52
2022-11-12T14:00:16.769Z,73.00
2022-11-12T14:03:06.139Z,77.15
2022-11-12T14:05:52.744Z,76.34
2022-11-12T14:08:56.377Z,78.02
2022-11-12T14:12:19.302Z,79.61
2022-11-12T14:15:23.462Z,81.82
2022-11-12T14:18:29.549Z,83.34
2022-11-12T14:21:19.446Z,82.14
2022-11-12T14:24:05.983Z,82.92
2022-11-12T14:26:51.867Z,83.46
2022-11-12T14:29:42.480Z,82.72
2022-11-12T14:32:40.899Z,84.34
2022-11-12T14:35:33.114Z,84.16
2022-11-12T14:38:50.495Z,81.85
2022-11-12T14:41:42.814Z,80.77
2022-11-12T14:44:38.190Z,83.29
2022-11-12T14:47:24.403Z,83.31
2022-11-12T14:50:37.351Z,84.96
2022-11-12T14:53:46.410Z,85.20
2022-11-12T14:56:44.655Z,86.07
2022-11-12T14:59:32.490Z,85.15
2022-11-12T15:02:37.645Z,85.18
2022-11-12T15:05:28.970Z,86.07
2022-11-12T15:08:39.518Z,87.78
2022-11-12T15:11:30.722Z,86.71
2022-11-12T15:14:25.203Z,87.64
2022-11-12T15:17:37.342Z,91.84
2022-11-12T15:20:23.267Z,93.25
2022-11-12T15:23:19.484Z,97.73
2022-11-12T15:26:14.313Z,96.30
2022-11-12T15:29:11.263Z,100.00
2022-11-12T15:32:23.342Z,100.00
2022-11-12T15:35:25.060Z,100.00
2022-11-12T15:38:38.523Z,100.00
2022-11-12T15:41:29.533Z,100.00
2022-11-12T15:44:15.661Z,100.00
2022-11-12T15:47:01.899Z,100.00
2022-11-12T15:49:53.653Z,100.00
2022-11-12T15:52:41.248Z,100.00
2022-11-12T15:55:27.517Z,100.00
2022-11-12T15:58:31.288Z,100.00
2022-11-12T16:01:17.506Z,100.00
2022-11-12T16:04:03.211Z,100.00
2022-11-12T16:06:49.267Z,100.00
2022-11-12T16:09:34.974Z,100.00
2022-11-12T16:12:20.526Z,100.00
2022-11-12T16:15:22.449Z,97.83
2022-11-12T16:18:12.081Z,98.41
2022-11-12T16:20:58.219Z,100.00
2022-11-12T16:23:43.666Z,97.50
2022-11-12T16:26:32.961Z,96.50
2022-11-12T16:29:19.037Z,97.21
2022-11-12T16:32:05.162Z,99.29
2022-11-12T16:34:51.097Z,99.00
2022-11-12T16:37:40.500Z,97.99
2022-11-12T16:40:30.053Z,90.44
2022-11-12T16:43:16.378Z,94.65
2022-11-12T16:46:02.285Z,91.36
2022-11-12T16:48:47.963Z,91.38
2022-11-12T16:51:34.317Z,92.70
2022-11-12T16:54:19.951Z,92.52
2022-11-12T16:57:05.596Z,91.58
2022-11-12T16:59:51.323Z,91.41
2022-11-12T17:02:42.164Z,90.01
2022-11-12T17:05:30.552Z,91.01
2022-11-12T17:08:16.287Z,90.64
2022-11-12T17:11:09.580Z,91.73
2022-11-12T17:13:55.419Z,91.93
2022-11-12T17:16:40.954Z,90.94
2022-11-12T17:19:27.018Z,90.64
2022-11-12T17:22:12.729Z,91.52
2022-11-12T17:24:58.679Z,94.39
2022-11-12T17:27:44.450Z,93.77
2022-11-12T17:30:30.608Z,100.00
2022-11-12T17:33:16.367Z,100.00
2022-11-12T17:36:07.406Z,100.00
2022-11-12T17:38:58.702Z,100.00
2022-11-12T17:41:44.752Z,100.00
2022-11-12T17:44:30.360Z,100.00
2022-11-12T17:47:16.289Z,100.00
2022-11-12T17:50:01.992Z,100.00
2022-11-12T17:52:47.691Z,100.00
2022-11-12T17:55:33.822Z,100.00
2022-11-12T17:58:19.689Z,100.00
2022-11-12T18:01:18.096Z,100.00
2022-11-12T18:04:04.007Z,100.00
2022-11-12T18:06:50.011Z,100.00
2022-11-12T18:09:36.114Z,100.00
2022-11-12T18:12:21.951Z,100.00
2022-11-12T18:15:08.359Z,100.00
2022-11-12T18:17:54.144Z,100.00
2022-11-12T18:20:41.166Z,100.00
2022-11-12T18:23:27.401Z,100.00
2022-11-12T18:26:15.466Z,100.00
2022-11-12T18:29:01.345Z,100.00
2022-11-12T18:31:48.863Z,100.00
2022-11-12T18:34:35.934Z,100.00
2022-11-12T18:37:21.979Z,100.00
2022-11-12T18:40:08.445Z,100.00
2022-11-12T18:42:54.201Z,100.00
2022-11-12T18:45:40.277Z,100.00
2022-11-12T18:48:32.012Z,100.00
2022-11-12T18:51:19.493Z,100.00
2022-11-12T18:54:06.137Z,100.00
2022-11-12T18:56:51.662Z,100.00
2022-11-12T18:59:37.736Z,100.00
2022-11-12T19:02:23.664Z,100.00
2022-11-12T19:05:09.794Z,100.00
2022-11-12T19:07:55.329Z,100.00
2022-11-12T19:10:41.395Z,100.00
2022-11-12T19:13:27.681Z,100.00
2022-11-12T19:16:17.588Z,100.00
2022-11-12T19:19:04.279Z,100.00
2022-11-12T19:21:50.242Z,100.00
2022-11-12T19:24:36.257Z,100.00
2022-11-12T19:27:23.217Z,100.00
2022-11-12T19:30:10.240Z,100.00
2022-11-12T19:32:56.418Z,100.00
2022-11-12T19:35:42.092Z,100.00
2022-11-12T19:38:28.767Z,100.00
2022-11-12T19:41:19.903Z,100.00
2022-11-12T19:44:06.424Z,100.00
2022-11-12T19:46:52.081Z,100.00
2022-11-12T19:49:38.112Z,100.00
2022-11-12T19:52:24.276Z,100.00
2022-11-12T19:55:10.448Z,100.00
2022-11-12T19:57:56.774Z,100.00
2022-11-12T20:00:42.581Z,100.00
2022-11-12T20:03:30.778Z,100.00
2022-11-12T20:06:19.770Z,100.00
2022-11-12T20:09:05.783Z,100.00
2022-11-12T20:11:51.688Z,100.00
2022-11-12T20:14:37.723Z,100.00
2022-11-12T20:17:23.688Z,100.00
2022-11-12T20:20:10.584Z,100.00
2022-11-12T20:22:56.216Z,100.00
2022-11-12T20:25:42.555Z,100.00
2022-11-12T20:28:28.583Z,100.00
2022-11-12T20:31:20.723Z,100.00
2022-11-12T20:34:07.214Z,100.00
2022-11-12T20:36:55.378Z,100.00
2022-11-12T20:39:40.844Z,100.00
2022-11-12T20:42:26.614Z,100.00
2022-11-12T20:45:13.215Z,100.00
2022-11-12T20:47:59.385Z,100.00
2022-11-12T20:51:09.228Z,100.00
2022-11-12T20:53:55.943Z,100.00
2022-11-12T20:56:44.575Z,100.00
2022-11-12T20:59:30.703Z,100.00
2022-11-12T21:02:16.535Z,100.00
2022-11-12T21:05:02.226Z,100.00
2022-11-12T21:07:47.989Z,100.00
2022-11-12T21:10:33.710Z,100.00
2022-11-12T21:13:20.597Z,100.00
2022-11-12T21:16:07.713Z,100.00
2022-11-12T21:18:53.588Z,100.00
2022-11-12T21:21:39.062Z,100.00
2022-11-12T21:24:25.159Z,100.00
2022-11-12T21:27:11.926Z,100.00
2022-11-12T21:29:57.722Z,100.00
2022-11-12T21:32:44.012Z,100.00
2022-11-12T21:35:29.785Z,100.00
2022-11-12T21:38:15.554Z,100.00
2022-11-12T21:41:08.107Z,100.00
2022-11-12T21:43:55.224Z,100.00
2022-11-12T21:46:41.264Z,100.00
2022-11-12T21:49:27.143Z,100.00
2022-11-12T21:52:13.359Z,100.00
2022-11-12T21:54:59.207Z,100.00
2022-11-12T21:57:45.101Z,100.00
2022-11-12T22:00:46.609Z,100.00
2022-11-12T22:03:32.415Z,100.00
2022-11-12T22:06:19.699Z,100.00
2022-11-12T22:09:06.142Z,100.00
2022-11-12T22:11:51.844Z,100.00
2022-11-12T22:14:37.759Z,100.00
2022-11-12T22:17:23.820Z,100.00
2022-11-12T22:20:10.030Z,100.00
2022-11-12T22:22:55.797Z,100.00
2022-11-12T22:25:41.749Z,100.00
2022-11-12T22:28:27.860Z,100.00
2022-11-12T22:31:18.055Z,100.00
2022-11-12T22:34:03.865Z,100.00
2022-11-12T22:36:49.687Z,100.00
2022-11-12T22:39:35.548Z,100.00
2022-11-12T22:42:21.745Z,100.00
2022-11-12T22:45:09.065Z,100.00
2022-11-12T22:47:55.485Z,100.00
2022-11-12T22:50:41.170Z,100.00
2022-11-12T22:53:28.704Z,100.00
2022-11-12T22:56:16.590Z,100.00
2022-11-12T22:59:06.235Z,100.00
2022-11-12T23:01:52.111Z,100.00
2022-11-12T23:04:38.282Z,100.00
2022-11-12T23:07:24.001Z,100.00
2022-11-12T23:10:10.584Z,100.00
2022-11-12T23:12:56.653Z,100.00
2022-11-12T23:15:46.588Z,100.00
2022-11-12T23:18:32.461Z,100.00
2022-11-12T23:21:22.513Z,100.00
2022-11-12T23:24:08.334Z,100.00
2022-11-12T23:26:53.911Z,100.00
2022-11-12T23:29:39.531Z,100.00
2022-11-12T23:32:25.436Z,100.00
2022-11-12T23:35:11.602Z,100.00
2022-11-12T23:37:57.308Z,100.00
2022-11-12T23:40:43.141Z,100.00
2022-11-12T23:43:29.256Z,100.00
2022-11-12T23:46:15.018Z,100.00
2022-11-12T23:49:00.723Z,100.00
2022-11-12T23:51:46.464Z,100.00
2022-11-12T23:54:32.484Z,100.00
2022-11-12T23:57:18.435Z,100.00
